createdAt,value
2019-03-25T00:01:15.921Z,24.65
2019-03-25T00:03:48.316Z,24.18
2019-03-25T00:06:21.104Z,26.30
2019-03-25T00:09:05.039Z,24.60
2019-03-25T00:11:29.264Z,27.07
2019-03-25T00:14:02.040Z,24.57
2019-03-25T00:16:34.549Z,19.00
2019-03-25T00:19:06.897Z,21.70
2019-03-25T00:21:39.574Z,21.42
2019-03-25T00:24:11.851Z,20.80
2019-03-25T00:26:44.226Z,23.65
2019-03-25T00:29:16.565Z,22.73
2019-03-25T00:31:48.894Z,24.87
2019-03-25T00:34:21.127Z,21.77
2019-03-25T00:36:53.473Z,17.30
2019-03-25T00:39:25.744Z,22.48
2019-03-25T00:41:58.041Z,26.52
2019-03-25T00:44:30.350Z,16.87
2019-03-25T00:47:02.928Z,15.93
2019-03-25T00:49:35.463Z,21.87
2019-03-25T00:52:07.778Z,22.75
2019-03-25T00:54:49.539Z,19.35
2019-03-25T00:57:14.091Z,17.57
2019-03-25T00:59:48.922Z,19.40
2019-03-25T01:02:20.584Z,21.85
2019-03-25T01:04:52.863Z,22.80
2019-03-25T01:07:25.190Z,25.82
2019-03-25T01:09:57.495Z,19.65
2019-03-25T01:12:29.811Z,23.83
2019-03-25T01:15:02.069Z,26.07
2019-03-25T01:17:34.858Z,22.67
2019-03-25T01:20:08.357Z,25.57
2019-03-25T01:22:40.757Z,19.07
2019-03-25T01:25:13.068Z,21.60
2019-03-25T01:27:45.338Z,22.13
2019-03-25T01:30:17.658Z,19.52
2019-03-25T01:32:49.991Z,24.90
2019-03-25T01:35:22.306Z,18.95
2019-03-25T01:37:54.633Z,18.50
2019-03-25T01:40:26.911Z,18.57
2019-03-25T01:42:59.221Z,22.40
2019-03-25T01:45:31.487Z,24.43
2019-03-25T01:48:03.837Z,24.85
2019-03-25T01:50:36.725Z,25.45
2019-03-25T01:53:09.409Z,18.23
2019-03-25T01:55:41.702Z,23.30
2019-03-25T01:58:14.046Z,19.67
2019-03-25T02:00:46.341Z,22.70
2019-03-25T02:03:18.604Z,22.85
2019-03-25T02:05:50.909Z,23.10
2019-03-25T02:08:23.176Z,22.93
2019-03-25T02:10:55.714Z,16.40
2019-03-25T02:13:27.973Z,28.87
2019-03-25T02:16:00.659Z,27.20
2019-03-25T02:18:33.860Z,26.60
2019-03-25T02:21:07.409Z,18.20
2019-03-25T02:23:39.695Z,24.18
2019-03-25T02:26:11.997Z,22.05
2019-03-25T02:28:44.399Z,18.82
2019-03-25T02:31:16.714Z,21.75
2019-03-25T02:33:49.025Z,18.82
2019-03-25T02:36:21.427Z,19.62
2019-03-25T02:38:53.775Z,20.75
2019-03-25T02:41:26.097Z,25.97
2019-03-25T02:43:58.868Z,24.75
2019-03-25T02:46:31.138Z,15.78
2019-03-25T02:49:03.443Z,19.67
2019-03-25T02:51:35.743Z,17.85
2019-03-25T02:54:08.483Z,18.12
2019-03-25T02:56:40.764Z,20.50
2019-03-25T02:59:13.022Z,18.48
2019-03-25T03:01:45.322Z,18.85
2019-03-25T03:04:17.716Z,20.08
2019-03-25T03:06:49.994Z,16.90
2019-03-25T03:09:22.278Z,15.65
2019-03-25T03:11:54.580Z,17.42
2019-03-25T03:14:26.873Z,14.00
2019-03-25T03:17:00.691Z,17.67
2019-03-25T03:19:33.027Z,18.30
2019-03-25T03:22:06.725Z,18.40
2019-03-25T03:24:39.025Z,18.95
2019-03-25T03:27:11.805Z,16.60
2019-03-25T03:29:44.100Z,15.30
2019-03-25T03:32:16.356Z,17.23
2019-03-25T03:34:49.100Z,23.42
2019-03-25T03:37:21.406Z,18.70
2019-03-25T03:39:53.719Z,16.87
2019-03-25T03:42:26.150Z,17.77
2019-03-25T03:44:58.464Z,20.00
2019-03-25T03:47:30.798Z,15.75
2019-03-25T03:50:03.465Z,14.38
2019-03-25T03:52:36.497Z,19.67
2019-03-25T03:55:08.852Z,17.75
2019-03-25T03:57:41.226Z,18.77
2019-03-25T04:00:18.487Z,17.85
2019-03-25T04:02:50.754Z,16.95
2019-03-25T04:05:23.055Z,15.58
2019-03-25T04:07:55.427Z,18.48
2019-03-25T04:10:28.053Z,17.32
2019-03-25T04:13:00.675Z,18.90
2019-03-25T04:15:34.525Z,15.83
2019-03-25T04:18:07.317Z,18.07
2019-03-25T04:20:39.575Z,15.00
2019-03-25T04:23:11.889Z,16.17
2019-03-25T04:25:44.207Z,19.00
2019-03-25T04:28:16.564Z,17.48
2019-03-25T04:30:48.907Z,19.10
2019-03-25T04:33:21.166Z,17.50
2019-03-25T04:35:53.443Z,14.93
2019-03-25T04:38:25.761Z,17.30
2019-03-25T04:40:58.017Z,15.18
2019-03-25T04:43:30.321Z,14.47
2019-03-25T04:46:03.234Z,18.67
2019-03-25T04:48:35.545Z,17.92
2019-03-25T04:51:08.052Z,15.13
2019-03-25T04:53:40.804Z,16.17
2019-03-25T04:56:13.055Z,14.60
2019-03-25T04:58:45.483Z,16.55
2019-03-25T05:01:17.730Z,13.00
2019-03-25T05:03:50.054Z,22.40
2019-03-25T05:06:24.197Z,22.25
2019-03-25T05:08:56.493Z,14.25
2019-03-25T05:11:30.794Z,21.02
2019-03-25T05:14:04.177Z,21.02
2019-03-25T05:16:36.487Z,13.62
2019-03-25T05:19:08.734Z,15.70
2019-03-25T05:21:41.109Z,16.48
2019-03-25T05:24:13.441Z,13.53
2019-03-25T05:26:50.985Z,16.52
2019-03-25T05:29:19.688Z,11.57
2019-03-25T05:31:51.947Z,14.10
2019-03-25T05:34:24.252Z,11.95
2019-03-25T05:36:56.596Z,11.63
2019-03-25T05:39:28.873Z,19.25
2019-03-25T05:42:02.864Z,16.65
2019-03-25T05:44:35.164Z,12.20
2019-03-25T05:47:07.485Z,15.50
2019-03-25T05:49:39.773Z,11.97
2019-03-25T05:52:12.041Z,16.93
2019-03-25T05:54:44.285Z,13.38
2019-03-25T05:57:16.533Z,17.62
2019-03-25T05:59:48.805Z,13.53
2019-03-25T06:02:21.047Z,13.22
2019-03-25T06:04:53.316Z,15.72
2019-03-25T06:07:25.676Z,14.95
2019-03-25T06:09:57.939Z,17.37
2019-03-25T06:12:30.269Z,20.52
2019-03-25T06:15:04.805Z,13.28
2019-03-25T06:17:37.137Z,13.05
2019-03-25T06:20:09.453Z,15.15
2019-03-25T06:22:41.779Z,13.93
2019-03-25T06:25:14.030Z,15.80
2019-03-25T06:27:46.266Z,16.23
2019-03-25T06:30:18.591Z,11.88
2019-03-25T06:32:50.879Z,14.07
2019-03-25T06:35:23.169Z,16.75
2019-03-25T06:37:55.810Z,15.78
2019-03-25T06:40:28.101Z,8.95
2019-03-25T06:43:00.418Z,13.95
2019-03-25T06:45:33.877Z,14.73
2019-03-25T06:48:06.138Z,14.25
2019-03-25T06:50:38.449Z,17.85
2019-03-25T06:53:10.727Z,11.60
2019-03-25T06:55:43.038Z,15.60
2019-03-25T06:58:15.324Z,16.62
2019-03-25T07:00:47.573Z,10.70
2019-03-25T07:03:19.865Z,12.40
2019-03-25T07:05:52.116Z,13.53
2019-03-25T07:08:24.372Z,13.85
2019-03-25T07:10:57.075Z,13.98
2019-03-25T07:13:29.652Z,13.95
2019-03-25T07:16:02.324Z,13.98
2019-03-25T07:18:34.609Z,12.88
2019-03-25T07:21:06.859Z,16.87
2019-03-25T07:23:50.549Z,14.07
2019-03-25T07:26:22.798Z,13.75
2019-03-25T07:28:55.096Z,17.10
2019-03-25T07:31:27.354Z,13.45
2019-03-25T07:33:59.656Z,13.38
2019-03-25T07:36:31.967Z,13.58
2019-03-25T07:39:04.837Z,14.83
2019-03-25T07:41:38.732Z,12.65
2019-03-25T07:44:11.117Z,16.23
2019-03-25T07:46:43.409Z,16.80
2019-03-25T07:49:15.783Z,14.23
2019-03-25T07:51:48.043Z,15.03
2019-03-25T07:54:20.307Z,14.43
2019-03-25T07:56:52.717Z,18.40
2019-03-25T07:59:25.071Z,14.60
2019-03-25T08:01:57.836Z,16.52
2019-03-25T08:04:30.079Z,17.77
2019-03-25T08:07:04.301Z,17.30
2019-03-25T08:09:36.536Z,12.00
2019-03-25T08:12:09.011Z,13.25
2019-03-25T08:14:49.022Z,17.45
2019-03-25T08:17:21.398Z,13.22
2019-03-25T08:19:53.790Z,13.13
2019-03-25T08:22:26.046Z,10.00
2019-03-25T08:24:58.304Z,11.73
2019-03-25T08:27:30.555Z,12.78
2019-03-25T08:30:05.259Z,12.58
2019-03-25T08:32:37.573Z,12.10
2019-03-25T08:35:10.940Z,13.80
2019-03-25T08:37:43.229Z,12.33
2019-03-25T08:40:15.542Z,12.98
2019-03-25T08:42:47.807Z,11.73
2019-03-25T08:45:20.070Z,14.43
2019-03-25T08:47:52.417Z,12.10
2019-03-25T08:50:24.694Z,12.70
2019-03-25T08:52:56.934Z,17.60
2019-03-25T08:55:29.225Z,13.58
2019-03-25T08:58:11.558Z,10.00
2019-03-25T09:00:37.540Z,12.13
2019-03-25T09:03:10.989Z,7.00
2019-03-25T09:05:43.242Z,9.95
2019-03-25T09:08:15.602Z,9.18
2019-03-25T09:10:47.869Z,7.45
2019-03-25T09:13:20.141Z,8.75
2019-03-25T09:15:52.420Z,7.42
2019-03-25T09:18:24.667Z,9.40
2019-03-25T09:20:56.922Z,8.18
2019-03-25T09:23:29.174Z,8.93
2019-03-25T09:26:02.848Z,6.05
2019-03-25T09:28:36.299Z,8.18
2019-03-25T09:31:18.903Z,8.28
2019-03-25T09:33:51.204Z,5.80
2019-03-25T09:36:23.567Z,9.28
2019-03-25T09:38:55.815Z,7.42
2019-03-25T09:41:28.074Z,10.20
2019-03-25T09:44:00.335Z,9.63
2019-03-25T09:46:33.014Z,9.75
2019-03-25T09:49:05.984Z,10.53
2019-03-25T09:51:38.243Z,5.67
2019-03-25T09:54:10.552Z,6.72
2019-03-25T09:56:42.810Z,8.20
2019-03-25T09:59:16.562Z,8.03
2019-03-25T10:01:48.817Z,7.20
2019-03-25T10:04:21.130Z,6.35
2019-03-25T10:06:53.428Z,10.50
2019-03-25T10:09:25.793Z,8.20
2019-03-25T10:11:58.075Z,6.28
2019-03-25T10:14:30.351Z,5.75
2019-03-25T10:17:02.885Z,6.85
2019-03-25T10:19:35.127Z,7.45
2019-03-25T10:22:09.064Z,7.20
2019-03-25T10:24:41.360Z,8.15
2019-03-25T10:27:13.608Z,5.55
2019-03-25T10:29:46.406Z,5.62
2019-03-25T10:32:18.690Z,9.25
2019-03-25T10:34:50.956Z,9.50
2019-03-25T10:37:23.240Z,5.95
2019-03-25T10:39:55.509Z,7.10
2019-03-25T10:42:27.820Z,5.85
2019-03-25T10:45:02.053Z,6.47
2019-03-25T10:47:35.706Z,6.40
2019-03-25T10:50:08.047Z,6.67
2019-03-25T10:52:40.388Z,6.25
2019-03-25T10:55:12.654Z,6.08
2019-03-25T10:57:44.946Z,6.00
2019-03-25T11:00:17.280Z,7.80
2019-03-25T11:02:49.719Z,6.70
2019-03-25T11:05:22.349Z,5.70
2019-03-25T11:07:56.180Z,6.78
2019-03-25T11:10:28.483Z,5.05
2019-03-25T11:13:00.798Z,6.25
2019-03-25T11:15:33.122Z,5.83
2019-03-25T11:18:05.939Z,7.67
2019-03-25T11:20:38.265Z,5.10
2019-03-25T11:23:10.518Z,5.95
2019-03-25T11:25:43.082Z,6.83
2019-03-25T11:28:15.397Z,8.38
2019-03-25T11:30:52.294Z,5.03
2019-03-25T11:33:24.857Z,5.97
2019-03-25T11:35:57.179Z,6.42
2019-03-25T11:38:29.475Z,7.80
2019-03-25T11:41:03.457Z,8.23
2019-03-25T11:43:35.876Z,9.13
2019-03-25T11:46:08.159Z,4.50
2019-03-25T11:48:40.456Z,3.67
2019-03-25T11:51:12.765Z,5.17
2019-03-25T11:53:45.135Z,5.90
2019-03-25T11:56:17.406Z,10.60
2019-03-25T11:58:49.746Z,7.03
2019-03-25T12:01:22.089Z,5.28
2019-03-25T12:03:54.382Z,6.35
2019-03-25T12:06:26.660Z,7.47
2019-03-25T12:08:59.020Z,4.78
2019-03-25T12:11:31.417Z,7.78
2019-03-25T12:14:03.726Z,5.85
2019-03-25T12:16:35.996Z,7.47
2019-03-25T12:19:10.118Z,6.50
2019-03-25T12:21:42.439Z,6.85
2019-03-25T12:24:14.684Z,7.17
2019-03-25T12:26:47.016Z,6.30
2019-03-25T12:29:29.610Z,7.92
2019-03-25T12:31:54.245Z,8.83
2019-03-25T12:34:28.183Z,5.83
2019-03-25T12:37:00.648Z,6.15
2019-03-25T12:39:32.885Z,7.37
2019-03-25T12:42:05.786Z,7.92
2019-03-25T12:44:38.044Z,8.88
2019-03-25T12:47:10.390Z,6.62
2019-03-25T12:49:43.298Z,7.12
2019-03-25T12:52:15.604Z,7.40
2019-03-25T12:54:47.900Z,6.62
2019-03-25T12:57:20.164Z,5.72
2019-03-25T12:59:52.817Z,8.85
2019-03-25T13:02:25.060Z,8.40
2019-03-25T13:04:57.379Z,7.03
2019-03-25T13:07:29.778Z,10.20
2019-03-25T13:10:02.087Z,5.90
2019-03-25T13:12:34.462Z,8.15
2019-03-25T13:15:09.601Z,4.33
2019-03-25T13:17:41.888Z,10.65
2019-03-25T13:20:14.152Z,6.08
2019-03-25T13:22:46.446Z,6.15
2019-03-25T13:25:18.692Z,5.72
2019-03-25T13:27:51.010Z,6.72
2019-03-25T13:30:23.255Z,6.22
2019-03-25T13:32:55.664Z,5.15
2019-03-25T13:35:27.965Z,8.98
2019-03-25T13:38:00.268Z,5.53
2019-03-25T13:40:34.058Z,6.28
2019-03-25T13:43:06.342Z,5.78
2019-03-25T13:45:38.718Z,11.43
2019-03-25T13:48:11.540Z,7.72
2019-03-25T13:50:44.146Z,9.50
2019-03-25T13:53:16.493Z,6.00
2019-03-25T13:55:48.751Z,13.13
2019-03-25T13:58:21.034Z,7.87
2019-03-25T14:00:53.709Z,7.60
2019-03-25T14:03:26.084Z,6.17
2019-03-25T14:05:58.781Z,7.33
2019-03-25T14:08:32.032Z,5.22
2019-03-25T14:11:04.559Z,8.10
2019-03-25T14:13:37.048Z,7.72
2019-03-25T14:16:09.369Z,5.72
2019-03-25T14:18:41.621Z,5.37
2019-03-25T14:21:14.908Z,9.98
2019-03-25T14:23:47.146Z,7.40
2019-03-25T14:26:19.443Z,4.62
2019-03-25T14:28:51.684Z,3.65
2019-03-25T14:31:23.960Z,7.60
2019-03-25T14:33:56.247Z,5.97
2019-03-25T14:36:28.544Z,3.52
2019-03-25T14:39:00.809Z,4.35
2019-03-25T14:41:35.204Z,10.08
2019-03-25T14:44:07.436Z,5.72
2019-03-25T14:46:39.751Z,4.95
2019-03-25T14:49:13.409Z,5.62
2019-03-25T14:51:45.644Z,5.10
2019-03-25T14:54:19.738Z,4.12
2019-03-25T14:56:52.005Z,4.62
2019-03-25T14:59:24.277Z,4.17
2019-03-25T15:01:56.718Z,6.15
2019-03-25T15:04:28.963Z,4.75
2019-03-25T15:07:02.215Z,3.35
2019-03-25T15:09:34.479Z,4.62
2019-03-25T15:12:06.813Z,5.35
2019-03-25T15:14:40.619Z,3.95
2019-03-25T15:17:14.493Z,5.05
2019-03-25T15:19:48.881Z,7.33
2019-03-25T15:22:23.100Z,4.53
2019-03-25T15:24:55.879Z,5.25
2019-03-25T15:27:28.163Z,6.17
2019-03-25T15:30:00.393Z,7.67
2019-03-25T15:32:32.867Z,4.92
2019-03-25T15:35:05.712Z,4.55
2019-03-25T15:37:38.051Z,7.17
2019-03-25T15:40:11.096Z,4.72
2019-03-25T15:42:45.311Z,3.83
2019-03-25T15:45:22.385Z,5.92
2019-03-25T15:47:58.885Z,5.75
2019-03-25T15:50:34.358Z,5.75
2019-03-25T15:53:10.779Z,3.83
2019-03-25T15:55:45.441Z,5.78
2019-03-25T15:58:26.195Z,4.72
2019-03-25T16:00:55.732Z,3.58
2019-03-25T16:03:27.965Z,2.85
2019-03-25T16:06:00.207Z,7.15
2019-03-25T16:08:32.972Z,8.43
2019-03-25T16:11:06.213Z,7.30
2019-03-25T16:13:38.522Z,2.72
2019-03-25T16:16:10.769Z,5.55
2019-03-25T16:18:43.368Z,5.50
2019-03-25T16:21:15.660Z,4.55
2019-03-25T16:23:47.904Z,6.37
2019-03-25T16:26:20.187Z,6.33
2019-03-25T16:28:52.481Z,4.17
2019-03-25T16:31:24.860Z,4.85
2019-03-25T16:33:57.174Z,3.62
2019-03-25T16:36:29.508Z,4.05
2019-03-25T16:39:01.754Z,3.83
2019-03-25T16:41:35.567Z,5.20
2019-03-25T16:44:07.816Z,6.92
2019-03-25T16:46:40.090Z,4.67
2019-03-25T16:49:12.711Z,6.22
2019-03-25T16:51:44.946Z,8.70
2019-03-25T16:54:17.213Z,6.97
2019-03-25T16:56:49.486Z,6.28
2019-03-25T16:59:22.144Z,4.75
2019-03-25T17:01:54.386Z,3.42
2019-03-25T17:04:26.630Z,6.80
2019-03-25T17:06:58.862Z,4.53
2019-03-25T17:09:31.099Z,5.15
2019-03-25T17:12:03.375Z,4.78
2019-03-25T17:14:35.624Z,5.10
2019-03-25T17:17:07.877Z,7.20
2019-03-25T17:19:40.122Z,6.37
2019-03-25T17:22:12.360Z,8.93
2019-03-25T17:24:44.596Z,5.40
2019-03-25T17:27:16.902Z,4.30
2019-03-25T17:29:49.150Z,6.12
2019-03-25T17:32:21.469Z,9.20
2019-03-25T17:34:53.881Z,7.50
2019-03-25T17:37:26.107Z,9.63
2019-03-25T17:39:58.357Z,2.60
2019-03-25T17:42:31.820Z,4.95
2019-03-25T17:45:04.204Z,3.05
2019-03-25T17:47:36.460Z,4.33
2019-03-25T17:50:10.109Z,5.47
2019-03-25T17:52:42.359Z,5.80
2019-03-25T17:55:14.602Z,7.12
2019-03-25T17:57:46.914Z,5.65
2019-03-25T18:00:35.850Z,7.12
2019-03-25T18:03:12.272Z,6.42
2019-03-25T18:05:44.532Z,5.92
2019-03-25T18:08:16.779Z,3.67
2019-03-25T18:10:49.024Z,3.92
2019-03-25T18:13:22.645Z,5.12
2019-03-25T18:15:55.353Z,11.00
2019-03-25T18:18:27.572Z,3.72
2019-03-25T18:20:59.826Z,5.60
2019-03-25T18:23:34.962Z,5.85
2019-03-25T18:26:07.203Z,5.15
2019-03-25T18:28:39.725Z,7.30
2019-03-25T18:31:12.026Z,6.60
2019-03-25T18:33:44.270Z,3.98
2019-03-25T18:36:16.616Z,6.80
2019-03-25T18:38:48.884Z,4.62
2019-03-25T18:41:23.812Z,8.05
2019-03-25T18:43:56.253Z,3.17
2019-03-25T18:46:28.480Z,3.35
2019-03-25T18:49:00.713Z,2.92
2019-03-25T18:51:33.031Z,6.85
2019-03-25T18:54:05.345Z,5.17
2019-03-25T18:56:36.155Z,2.85
2019-03-25T18:59:10.443Z,4.85
2019-03-25T19:01:42.373Z,6.70
2019-03-25T19:04:14.641Z,7.42
2019-03-25T19:06:47.377Z,8.85
2019-03-25T19:09:19.632Z,4.90
2019-03-25T19:11:51.863Z,3.92
2019-03-25T19:14:24.104Z,30.02
2019-03-25T19:16:56.397Z,12.95
2019-03-25T19:19:29.671Z,22.82
2019-03-25T19:22:05.216Z,27.90
2019-03-25T19:24:37.215Z,9.13
2019-03-25T19:27:09.546Z,19.67
2019-03-25T19:29:41.826Z,7.75
2019-03-25T19:32:15.865Z,11.45
2019-03-25T19:34:48.100Z,15.18
2019-03-25T19:37:20.343Z,9.50
2019-03-25T19:39:53.743Z,8.60
2019-03-25T19:42:26.057Z,8.18
2019-03-25T19:44:58.407Z,6.30
2019-03-25T19:47:30.695Z,8.98
2019-03-25T19:50:03.293Z,6.37
2019-03-25T19:52:35.553Z,6.00
2019-03-25T19:55:07.816Z,4.78
2019-03-25T19:57:40.155Z,6.62
2019-03-25T20:00:12.398Z,5.33
2019-03-25T20:02:46.575Z,4.00
2019-03-25T20:05:19.266Z,4.20
2019-03-25T20:07:51.522Z,6.60
2019-03-25T20:10:30.958Z,3.77
2019-03-25T20:13:03.323Z,10.00
2019-03-25T20:15:45.516Z,5.78
2019-03-25T20:18:09.656Z,4.30
2019-03-25T20:20:41.929Z,5.92
2019-03-25T20:23:14.239Z,7.83
2019-03-25T20:25:46.491Z,5.15
2019-03-25T20:28:18.739Z,4.92
2019-03-25T20:30:51.026Z,3.72
2019-03-25T20:33:23.386Z,4.92
2019-03-25T20:35:55.769Z,4.50
2019-03-25T20:38:28.067Z,4.20
2019-03-25T20:41:00.407Z,4.78
2019-03-25T20:43:33.142Z,4.05
2019-03-25T20:46:05.481Z,4.97
2019-03-25T20:48:38.048Z,4.87
2019-03-25T20:51:12.233Z,6.55
2019-03-25T20:53:45.042Z,3.35
2019-03-25T20:56:17.436Z,5.70
2019-03-25T20:58:49.690Z,4.33
2019-03-25T21:01:22.427Z,4.58
2019-03-25T21:03:54.705Z,4.03
2019-03-25T21:06:28.158Z,5.40
2019-03-25T21:09:00.405Z,4.47
2019-03-25T21:11:34.231Z,3.37
2019-03-25T21:14:06.729Z,8.70
2019-03-25T21:16:41.284Z,6.97
2019-03-25T21:19:13.644Z,6.37
2019-03-25T21:21:45.967Z,6.78
2019-03-25T21:24:18.702Z,6.03
2019-03-25T21:26:52.121Z,7.25
2019-03-25T21:29:24.446Z,7.55
2019-03-25T21:31:57.334Z,8.63
2019-03-25T21:34:29.665Z,5.62
2019-03-25T21:37:02.075Z,6.20
2019-03-25T21:39:34.453Z,7.53
2019-03-25T21:42:07.193Z,9.98
2019-03-25T21:44:39.521Z,8.58
2019-03-25T21:47:11.849Z,8.65
2019-03-25T21:49:44.225Z,12.43
2019-03-25T21:52:16.619Z,8.08
2019-03-25T21:54:49.223Z,7.67
2019-03-25T21:57:21.493Z,8.10
2019-03-25T21:59:53.755Z,6.00
2019-03-25T22:02:26.013Z,6.80
2019-03-25T22:04:58.439Z,6.58
2019-03-25T22:07:30.679Z,5.33
2019-03-25T22:10:02.932Z,6.37
2019-03-25T22:12:36.492Z,6.58
2019-03-25T22:15:10.299Z,6.42
2019-03-25T22:17:43.848Z,6.70
2019-03-25T22:20:16.201Z,6.12
2019-03-25T22:22:48.446Z,6.42
2019-03-25T22:25:21.754Z,5.00
2019-03-25T22:27:54.071Z,4.53
2019-03-25T22:30:26.302Z,5.45
2019-03-25T22:32:58.588Z,8.08
2019-03-25T22:35:30.860Z,6.20
2019-03-25T22:38:03.113Z,6.70
2019-03-25T22:40:35.375Z,4.70
2019-03-25T22:43:07.620Z,5.95
2019-03-25T22:45:39.869Z,5.03
2019-03-25T22:48:12.159Z,4.75
2019-03-25T22:50:44.418Z,4.10
2019-03-25T22:53:16.677Z,5.67
2019-03-25T22:55:48.982Z,6.30
2019-03-25T22:58:21.218Z,5.35
2019-03-25T23:00:53.524Z,3.45
2019-03-25T23:03:38.183Z,5.28
2019-03-25T23:06:00.034Z,6.47
2019-03-25T23:08:32.388Z,5.00
2019-03-25T23:11:04.686Z,10.63
2019-03-25T23:13:37.020Z,4.67
2019-03-25T23:16:09.316Z,4.85
2019-03-25T23:18:42.635Z,8.15
2019-03-25T23:21:14.920Z,6.08
2019-03-25T23:23:47.188Z,4.90
2019-03-25T23:26:19.484Z,3.40
2019-03-25T23:28:51.737Z,5.05
2019-03-25T23:31:24.475Z,5.05
2019-03-25T23:33:56.755Z,3.62
2019-03-25T23:36:30.134Z,4.08
2019-03-25T23:39:02.970Z,4.30
2019-03-25T23:41:37.177Z,5.72
2019-03-25T23:44:09.483Z,4.03
2019-03-25T23:47:31.689Z,6.40
2019-03-25T23:50:04.384Z,3.65
2019-03-25T23:52:36.665Z,4.45
2019-03-25T23:55:09.296Z,4.90
2019-03-25T23:57:41.544Z,2.05
